Time;durP1;ratioP1;P1;durP2;ratioP2;P2;SDS_P1;SDS_P2;PMS_P1;PMS_P2;Temp;Humidity;BMP_temperature;BMP_pressure;BME280_temperature;BME280_humidity;BME280_pressure;Samples;Min_cycle;Max_cycle;Signal;HPM_P1;HPM_P2
2021/12/22 00:01:49;;;;;;;;;;;;;;;9.11;30.94;100490.47;4478168;32;32432;-76
2021/12/22 00:04:17;;;;;;;;;;;;;;;9.32;30.50;100494.59;4480707;32;33825;-76
2021/12/22 00:06:44;;;;;;;;;;;;;;;9.26;30.57;100500.28;4466560;32;35880;-76
2021/12/22 00:09:12;;;;;;;;;;;;;;;9.25;31.09;100501.25;4473827;32;34328;-78
2021/12/22 00:11:39;;;;;;;;;;;;;;;9.32;31.03;100499.94;4476601;32;31588;-79
2021/12/22 00:14:06;;;;;;;;;;;;;;;9.33;31.34;100501.66;4468611;31;35143;-78
2021/12/22 00:16:34;;;;;;;;;;;;;;;9.31;31.38;100500.03;4470266;32;34368;-75
2021/12/22 00:19:02;;;;;;;;;;;;;;;9.42;31.35;100504.75;4471311;32;32691;-76
2021/12/22 00:21:29;;;;;;;;;;;;;;;9.01;32.30;100516.84;4474331;32;33187;-75
2021/12/22 00:23:57;;;;;;;;;;;;;;;9.35;31.48;100516.75;4479328;31;34755;-75
2021/12/22 00:26:24;;;;;;;;;;;;;;;9.35;31.58;100517.59;4470474;32;34315;-75
2021/12/22 00:28:51;;;;;;;;;;;;;;;9.32;31.49;100521.31;4476958;31;34170;-75
2021/12/22 00:31:21;;;;;;;;;;;;;;;9.19;32.25;100530.12;4468623;32;33475;-76
2021/12/22 00:33:49;;;;;;;;;;;;;;;9.48;31.42;100529.31;4474075;32;33332;-75
2021/12/22 00:36:18;;;;;;;;;;;;;;;9.46;31.61;100535.69;4470065;32;34368;-76
2021/12/22 00:38:45;;;;;;;;;;;;;;;9.51;31.45;100545.16;4465187;32;34812;-77
2021/12/22 00:41:13;;;;;;;;;;;;;;;8.49;34.23;100556.19;4467599;32;32768;-77
2021/12/22 00:43:40;;;;;;;;;;;;;;;5.25;38.90;100552.56;4470550;32;34903;-76
2021/12/22 00:46:08;;;;;;;;;;;;;;;6.70;37.26;100553.44;4466152;32;34101;-76
2021/12/22 00:48:36;;;;;;;;;;;;;;;8.19;34.53;100550.66;4475514;32;32617;-76
2021/12/22 00:51:03;;;;;;;;;;;;;;;8.23;34.63;100554.88;4470223;32;33059;-75
2021/12/22 00:53:30;;;;;;;;;;;;;;;7.55;35.63;100560.97;4470857;32;35110;-74
2021/12/22 00:55:58;;;;;;;;;;;;;;;8.54;33.93;100555.03;4474958;32;32957;-73
2021/12/22 00:58:25;;;;;;;;;;;;;;;9.03;32.84;100552.34;4476724;32;33821;-75
2021/12/22 01:00:52;;;;;;;;;;;;;;;8.96;33.51;100547.44;4476285;32;33120;-72
2021/12/22 01:03:20;;;;;;;;;;;;;;;9.04;33.49;100555.84;4476190;32;33985;-74
2021/12/22 01:05:48;;;;;;;;;;;;;;;8.89;33.83;100554.03;4471872;32;34297;-72
2021/12/22 01:08:15;;;;;;;;;;;;;;;9.29;32.83;100560.69;4467789;32;34184;-73
2021/12/22 01:10:43;;;;;;;;;;;;;;;9.35;32.70;100563.03;4469650;32;33346;-73
2021/12/22 01:13:11;;;;;;;;;;;;;;;9.57;31.99;100576.88;4473547;32;33462;-75
2021/12/22 01:15:38;;;;;;;;;;;;;;;9.68;31.80;100580.75;4472216;32;36821;-74
2021/12/22 01:18:16;;;;;;;;;;;;;;;9.78;31.43;100576.59;4470650;32;34272;-73
2021/12/22 01:23:24;;;;;;;;;;;;;;;9.93;31.21;100573.03;4477838;32;33831;-73
2021/12/22 01:25:51;;;;;;;;;;;;;;;9.92;31.70;100570.41;4475219;32;33065;-73
2021/12/22 01:28:22;;;;;;;;;;;;;;;9.60;32.68;100569.63;4469027;32;33951;-73
2021/12/22 01:30:50;;;;;;;;;;;;;;;9.68;32.02;100565.56;4479011;32;32051;-75
2021/12/22 01:33:17;;;;;;;;;;;;;;;9.21;32.87;100571.81;4481096;32;32960;-73
2021/12/22 01:35:45;;;;;;;;;;;;;;;8.74;33.67;100566.41;4473520;32;33826;-76
2021/12/22 01:38:12;;;;;;;;;;;;;;;8.60;33.94;100560.03;4468870;32;33974;-74
2021/12/22 01:40:40;;;;;;;;;;;;;;;7.54;36.09;100575.19;4474696;32;33390;-76
2021/12/22 01:43:08;;;;;;;;;;;;;;;8.48;34.62;100574.00;4467799;32;34088;-74
2021/12/22 01:46:09;;;;;;;;;;;;;;;7.89;35.50;100576.09;4472993;32;34260;-73
2021/12/22 01:51:28;;;;;;;;;;;;;;;7.89;35.57;100576.09;4474569;32;33129;-73
2021/12/22 01:54:00;;;;;;;;;;;;;;;8.38;34.73;100576.31;4471579;32;34075;-71
2021/12/22 01:56:30;;;;;;;;;;;;;;;8.66;34.39;100571.28;4472840;32;34399;-72
2021/12/22 01:58:59;;;;;;;;;;;;;;;8.28;34.83;100569.69;4467313;32;32737;-72
2021/12/22 02:01:27;;;;;;;;;;;;;;;7.97;35.54;100570.41;4466937;32;33176;-73
2021/12/22 02:03:54;;;;;;;;;;;;;;;8.81;34.02;100581.16;4466948;32;33046;-73
2021/12/22 02:06:22;;;;;;;;;;;;;;;8.90;33.74;100575.31;4467762;32;34230;-71
2021/12/22 02:08:52;;;;;;;;;;;;;;;9.04;33.37;100580.75;4467021;32;34432;-73
2021/12/22 02:11:20;;;;;;;;;;;;;;;8.70;34.20;100583.53;4472832;32;32402;-73
2021/12/22 02:13:53;;;;;;;;;;;;;;;8.70;34.00;100576.41;4474556;32;32905;-73
2021/12/22 02:16:26;;;;;;;;;;;;;;;9.01;33.30;100580.06;4471058;32;35152;-73
2021/12/22 02:18:55;;;;;;;;;;;;;;;8.92;33.41;100578.75;4466292;32;33877;-73
2021/12/22 02:21:24;;;;;;;;;;;;;;;8.84;33.32;100579.19;4472689;32;33675;-72
2021/12/22 02:23:52;;;;;;;;;;;;;;;9.02;33.13;100587.13;4471575;32;33004;-73
2021/12/22 02:26:26;;;;;;;;;;;;;;;9.03;32.94;100580.84;4474069;32;34312;-72
2021/12/22 02:28:59;;;;;;;;;;;;;;;6.91;36.04;100572.87;4468104;32;33206;-73
2021/12/22 02:31:27;;;;;;;;;;;;;;;7.96;34.91;100573.13;4469940;32;34247;-72
2021/12/22 02:33:54;;;;;;;;;;;;;;;7.98;35.21;100580.13;4473120;32;34240;-74
2021/12/22 02:36:24;;;;;;;;;;;;;;;8.37;34.45;100571.00;4468580;32;34788;-73
2021/12/22 02:38:53;;;;;;;;;;;;;;;8.51;34.43;100575.66;4471240;32;33826;-72
2021/12/22 02:41:22;;;;;;;;;;;;;;;8.93;33.58;100575.16;4470364;32;33501;-75
2021/12/22 02:43:53;;;;;;;;;;;;;;;8.99;33.50;100574.81;4474066;32;33893;-73
2021/12/22 02:46:23;;;;;;;;;;;;;;;9.25;32.10;100581.38;4466958;32;34442;-76
2021/12/22 02:48:50;;;;;;;;;;;;;;;9.38;31.72;100578.88;4479744;32;32952;-74
2021/12/22 02:51:18;;;;;;;;;;;;;;;9.28;31.84;100573.19;4465884;32;33273;-77
2021/12/22 02:56:54;;;;;;;;;;;;;;;7.62;35.46;100581.03;4462318;32;34530;-73
2021/12/22 03:04:44;;;;;;;;;;;;;;;8.89;33.57;100576.25;4473667;32;33843;-72
2021/12/22 03:07:15;;;;;;;;;;;;;;;8.51;33.95;100591.69;4476099;31;34241;-72
2021/12/22 03:09:43;;;;;;;;;;;;;;;8.91;33.17;100600.22;4471775;32;34022;-74
2021/12/22 03:12:11;;;;;;;;;;;;;;;9.06;33.15;100596.72;4475132;31;32985;-72
2021/12/22 03:14:39;;;;;;;;;;;;;;;9.01;33.01;100602.28;4467261;32;34240;-72
2021/12/22 03:17:06;;;;;;;;;;;;;;;8.94;33.34;100605.38;4471240;32;35078;-72
2021/12/22 03:19:34;;;;;;;;;;;;;;;9.35;32.65;100602.25;4470965;32;34035;-77
2021/12/22 03:22:04;;;;;;;;;;;;;;;9.49;32.26;100602.31;4469417;32;31949;-73
2021/12/22 03:24:33;;;;;;;;;;;;;;;9.29;32.89;100598.09;4475433;32;34076;-74
2021/12/22 03:27:02;;;;;;;;;;;;;;;9.23;32.72;100593.94;4475577;32;34002;-73
2021/12/22 03:29:31;;;;;;;;;;;;;;;9.48;32.70;100593.44;4471227;32;35000;-74
2021/12/22 03:31:58;;;;;;;;;;;;;;;9.15;32.89;100590.88;4467187;32;32827;-73
2021/12/22 03:34:25;;;;;;;;;;;;;;;9.52;32.24;100603.00;4471769;32;33938;-73
2021/12/22 03:36:53;;;;;;;;;;;;;;;9.11;33.35;100607.97;4473343;32;33925;-73
2021/12/22 03:39:20;;;;;;;;;;;;;;;9.31;32.96;100610.44;4474811;31;34185;-73
2021/12/22 03:41:48;;;;;;;;;;;;;;;9.55;32.74;100610.00;4474715;32;33062;-74
2021/12/22 03:44:16;;;;;;;;;;;;;;;9.74;32.17;100613.34;4473920;32;35210;-76
2021/12/22 03:46:43;;;;;;;;;;;;;;;10.07;31.58;100598.94;4455728;32;34979;-76
2021/12/22 03:49:11;;;;;;;;;;;;;;;9.85;31.86;100610.03;4474757;32;34794;-76
2021/12/22 03:51:38;;;;;;;;;;;;;;;9.86;31.71;100611.78;4470335;32;33857;-74
2021/12/22 03:54:07;;;;;;;;;;;;;;;9.86;32.05;100625.16;4473660;32;34041;-76
2021/12/22 03:56:35;;;;;;;;;;;;;;;10.03;31.37;100610.78;4470057;31;32870;-75
2021/12/22 03:59:03;;;;;;;;;;;;;;;9.85;31.48;100609.16;4471749;32;33989;-75
2021/12/22 04:01:30;;;;;;;;;;;;;;;9.88;31.72;100609.84;4470886;31;33088;-74
2021/12/22 04:04:02;;;;;;;;;;;;;;;9.54;32.27;100603.78;4474059;32;34032;-74
2021/12/22 04:06:30;;;;;;;;;;;;;;;9.96;31.34;100598.72;4467924;32;33562;-77
2021/12/22 04:08:58;;;;;;;;;;;;;;;9.82;31.97;100617.38;4461145;32;33973;-77
2021/12/22 04:11:25;;;;;;;;;;;;;;;9.71;32.31;100615.31;4474534;32;33149;-78
2021/12/22 04:13:52;;;;;;;;;;;;;;;9.58;32.52;100617.84;4475234;31;34276;-77
2021/12/22 04:16:20;;;;;;;;;;;;;;;9.67;32.57;100617.31;4472548;32;34325;-77
2021/12/22 04:18:47;;;;;;;;;;;;;;;9.90;31.84;100623.16;4467719;32;33240;-76
2021/12/22 04:21:15;;;;;;;;;;;;;;;9.44;32.57;100615.09;4472494;32;34534;-81
2021/12/22 04:23:42;;;;;;;;;;;;;;;9.71;32.10;100631.38;4465726;32;34152;-76
2021/12/22 04:26:12;;;;;;;;;;;;;;;9.90;31.84;100633.84;4459651;32;34332;-77
2021/12/22 04:28:40;;;;;;;;;;;;;;;9.65;32.33;100629.87;4460161;31;34179;-74
2021/12/22 04:31:07;;;;;;;;;;;;;;;10.13;31.31;100638.69;4465338;32;33419;-76
2021/12/22 04:33:35;;;;;;;;;;;;;;;9.53;32.63;100634.13;4466933;32;35163;-77
2021/12/22 04:36:02;;;;;;;;;;;;;;;9.32;33.40;100632.66;4472840;32;34738;-79
2021/12/22 04:38:30;;;;;;;;;;;;;;;10.04;31.32;100633.87;4471287;32;35036;-77
2021/12/22 04:40:57;;;;;;;;;;;;;;;9.67;31.94;100636.03;4472141;32;33632;-78
2021/12/22 04:43:25;;;;;;;;;;;;;;;9.50;32.27;100637.00;4474562;32;33948;-76
2021/12/22 04:45:52;;;;;;;;;;;;;;;9.04;33.12;100638.66;4471151;32;33975;-76
2021/12/22 04:48:19;;;;;;;;;;;;;;;9.48;32.37;100638.00;4467906;32;34889;-76
2021/12/22 04:50:47;;;;;;;;;;;;;;;9.66;31.84;100630.75;4476149;32;34385;-79
2021/12/22 04:53:20;;;;;;;;;;;;;;;8.81;33.05;100629.22;4471884;32;34023;-76
2021/12/22 04:55:48;;;;;;;;;;;;;;;8.89;33.43;100626.13;4471267;32;33182;-79
2021/12/22 04:58:15;;;;;;;;;;;;;;;9.10;32.99;100635.62;4469087;32;35105;-80
2021/12/22 05:00:43;;;;;;;;;;;;;;;9.24;32.79;100629.53;4472696;32;33342;-75
2021/12/22 05:03:10;;;;;;;;;;;;;;;9.82;31.40;100630.72;4474799;31;34046;-74
2021/12/22 05:05:37;;;;;;;;;;;;;;;9.24;32.56;100635.72;4468896;32;34396;-73
2021/12/22 05:08:05;;;;;;;;;;;;;;;9.10;33.00;100633.81;4468805;31;34959;-73
2021/12/22 05:10:32;;;;;;;;;;;;;;;9.49;32.42;100632.56;4473049;32;34179;-75
2021/12/22 05:13:00;;;;;;;;;;;;;;;9.26;32.52;100639.19;4464866;32;35108;-74
2021/12/22 05:15:36;;;;;;;;;;;;;;;9.30;31.94;100637.22;4471937;32;33887;-74
2021/12/22 05:20:50;;;;;;;;;;;;;;;9.66;31.75;100631.62;4465704;32;32677;-77
2021/12/22 05:23:18;;;;;;;;;;;;;;;9.83;31.56;100636.00;4465162;32;33981;-76
2021/12/22 05:25:45;;;;;;;;;;;;;;;9.95;31.32;100640.66;4465956;32;35408;-77
2021/12/22 05:28:13;;;;;;;;;;;;;;;9.26;32.63;100638.34;4472171;32;34052;-77
2021/12/22 05:30:40;;;;;;;;;;;;;;;9.55;32.46;100647.41;4469578;32;33539;-76
2021/12/22 05:33:08;;;;;;;;;;;;;;;9.90;31.73;100648.06;4470367;32;33969;-73
2021/12/22 05:35:35;;;;;;;;;;;;;;;9.75;31.95;100656.97;4476763;31;33961;-74
2021/12/22 05:38:02;;;;;;;;;;;;;;;10.04;31.39;100652.62;4472859;32;34847;-73
2021/12/22 05:40:30;;;;;;;;;;;;;;;9.89;31.59;100654.37;4475821;31;31962;-74
2021/12/22 05:42:57;;;;;;;;;;;;;;;9.88;31.56;100655.31;4465433;32;32979;-73
2021/12/22 05:45:25;;;;;;;;;;;;;;;9.56;31.79;100655.31;4475061;32;33877;-73
2021/12/22 05:47:53;;;;;;;;;;;;;;;10.10;31.42;100668.31;4470524;32;33055;-72
2021/12/22 05:50:21;;;;;;;;;;;;;;;10.00;31.36;100665.31;4471383;31;32942;-72
2021/12/22 05:52:48;;;;;;;;;;;;;;;9.64;32.41;100656.72;4469219;32;32962;-72
2021/12/22 05:55:16;;;;;;;;;;;;;;;9.62;31.94;100664.81;4465293;32;34885;-72
2021/12/22 05:57:43;;;;;;;;;;;;;;;9.85;31.74;100663.50;4469416;31;33945;-72
2021/12/22 06:00:11;;;;;;;;;;;;;;;9.63;31.89;100661.22;4466904;32;34432;-72
2021/12/22 06:02:38;;;;;;;;;;;;;;;9.79;31.75;100669.19;4468136;32;34130;-72
2021/12/22 06:05:06;;;;;;;;;;;;;;;9.82;31.87;100671.69;4471383;32;34308;-72
2021/12/22 06:07:33;;;;;;;;;;;;;;;9.62;32.02;100678.19;4474155;32;34399;-71
2021/12/22 06:10:00;;;;;;;;;;;;;;;9.97;31.56;100681.53;4472666;32;33396;-81
2021/12/22 06:12:28;;;;;;;;;;;;;;;10.71;29.68;100679.91;4464656;32;35420;-78
2021/12/22 06:14:55;;;;;;;;;;;;;;;10.71;29.98;100686.12;4472803;32;34860;-78
2021/12/22 06:17:23;;;;;;;;;;;;;;;10.62;30.25;100688.47;4471182;31;34488;-71
2021/12/22 06:19:50;;;;;;;;;;;;;;;10.72;30.39;100687.84;4471644;32;33531;-80
2021/12/22 06:22:18;;;;;;;;;;;;;;;10.52;30.60;100693.53;4458991;32;35466;-79
2021/12/22 06:24:45;;;;;;;;;;;;;;;10.71;30.23;100699.50;4470709;31;33956;-79
2021/12/22 06:27:13;;;;;;;;;;;;;;;10.71;30.15;100695.97;4472409;32;33953;-79
2021/12/22 06:29:40;;;;;;;;;;;;;;;10.86;29.79;100703.09;4469286;32;33407;-71
2021/12/22 06:32:08;;;;;;;;;;;;;;;11.03;29.52;100703.88;4470972;32;33249;-72
2021/12/22 06:34:35;;;;;;;;;;;;;;;11.13;29.40;100705.00;4471279;32;34138;-77
2021/12/22 06:37:03;;;;;;;;;;;;;;;10.96;30.10;100711.41;4475616;32;33881;-76
2021/12/22 06:39:30;;;;;;;;;;;;;;;11.07;29.76;100713.44;4471966;32;34076;-77
2021/12/22 06:41:58;;;;;;;;;;;;;;;11.33;28.90;100710.03;4473613;32;32403;-79
2021/12/22 06:44:25;;;;;;;;;;;;;;;11.32;29.22;100718.13;4473334;32;34078;-79
2021/12/22 06:46:53;;;;;;;;;;;;;;;11.13;29.72;100727.31;4470792;32;34473;-79
2021/12/22 06:49:23;;;;;;;;;;;;;;;11.02;30.21;100732.47;4472701;32;33156;-78
2021/12/22 06:51:51;;;;;;;;;;;;;;;10.81;30.92;100731.94;4471422;32;33865;-78
2021/12/22 06:54:18;;;;;;;;;;;;;;;10.78;30.81;100739.31;4465628;32;33713;-76
2021/12/22 06:56:46;;;;;;;;;;;;;;;11.09;30.49;100743.69;4475562;32;34498;-76
2021/12/22 06:59:14;;;;;;;;;;;;;;;11.36;29.50;100730.38;4470561;32;34494;-76
2021/12/22 07:01:42;;;;;;;;;;;;;;;10.98;30.22;100732.75;4473750;32;34026;-76
2021/12/22 07:04:10;;;;;;;;;;;;;;;11.53;29.37;100732.88;4465267;32;33276;-76
2021/12/22 07:06:37;;;;;;;;;;;;;;;11.26;30.39;100739.97;4471266;32;33641;-78
2021/12/22 07:09:04;;;;;;;;;;;;;;;11.52;30.03;100741.87;4470417;32;33710;-78
2021/12/22 07:11:33;;;;;;;;;;;;;;;11.46;29.44;100744.97;4475514;32;34150;-74
2021/12/22 07:14:00;;;;;;;;;;;;;;;11.56;29.43;100740.75;4470527;32;35330;-76
2021/12/22 07:16:28;;;;;;;;;;;;;;;11.37;29.30;100741.03;4476412;32;32899;-79
2021/12/22 07:18:56;;;;;;;;;;;;;;;11.30;29.57;100754.88;4472648;32;32121;-76
2021/12/22 07:21:23;;;;;;;;;;;;;;;10.87;30.14;100742.28;4471955;32;34299;-76
2021/12/22 07:23:51;;;;;;;;;;;;;;;11.03;29.81;100744.91;4473334;32;34224;-76
2021/12/22 07:26:23;;;;;;;;;;;;;;;10.58;30.37;100746.72;4469914;32;34221;-77
2021/12/22 07:28:50;;;;;;;;;;;;;;;10.94;29.80;100746.31;4471781;32;33292;-76
2021/12/22 07:31:17;;;;;;;;;;;;;;;10.97;29.82;100747.97;4469201;32;35165;-76
2021/12/22 07:33:52;;;;;;;;;;;;;;;10.50;29.91;100757.03;4470301;32;34248;-79
2021/12/22 07:36:19;;;;;;;;;;;;;;;10.54;30.51;100750.53;4474356;32;33995;-76
2021/12/22 07:38:47;;;;;;;;;;;;;;;10.92;30.06;100750.94;4475100;32;33325;-78
2021/12/22 07:41:14;;;;;;;;;;;;;;;10.86;30.17;100755.78;4470747;32;33571;-75
2021/12/22 07:43:41;;;;;;;;;;;;;;;10.88;29.86;100760.09;4478871;32;34205;-76
2021/12/22 07:46:09;;;;;;;;;;;;;;;11.06;29.49;100760.78;4473779;32;34126;-78
2021/12/22 07:48:36;;;;;;;;;;;;;;;11.24;29.55;100758.81;4476832;32;33431;-78
2021/12/22 07:51:04;;;;;;;;;;;;;;;10.98;30.35;100767.56;4477372;32;33525;-77
2021/12/22 07:53:31;;;;;;;;;;;;;;;11.17;29.64;100771.75;4474775;32;34336;-76
2021/12/22 07:55:59;;;;;;;;;;;;;;;11.04;29.52;100770.72;4475236;32;33329;-77
2021/12/22 07:58:27;;;;;;;;;;;;;;;10.56;30.84;100772.72;4475093;32;32367;-77
2021/12/22 08:00:55;;;;;;;;;;;;;;;11.61;28.84;100773.47;4473304;32;32900;-77
2021/12/22 08:03:24;;;;;;;;;;;;;;;12.05;28.19;100780.56;4475996;32;34219;-78
2021/12/22 08:06:12;;;;;;;;;;;;;;;11.95;27.56;100786.63;4475777;32;33779;-78
2021/12/22 08:08:40;;;;;;;;;;;;;;;12.24;27.16;100780.22;4471823;32;33193;-76
2021/12/22 08:11:07;;;;;;;;;;;;;;;11.58;27.95;100778.16;4462622;32;32924;-76
2021/12/22 08:13:34;;;;;;;;;;;;;;;12.01;27.54;100778.19;4474170;32;35397;-76
2021/12/22 08:16:02;;;;;;;;;;;;;;;11.79;27.56;100792.91;4471798;32;35170;-76
2021/12/22 08:18:30;;;;;;;;;;;;;;;11.77;27.53;100792.13;4471246;32;33992;-76
2021/12/22 08:20:57;;;;;;;;;;;;;;;11.39;27.70;100790.03;4473462;32;32286;-77
2021/12/22 08:23:25;;;;;;;;;;;;;;;11.89;27.27;100785.19;4476024;32;32817;-75
2021/12/22 08:25:52;;;;;;;;;;;;;;;11.87;27.19;100789.75;4478577;32;35049;-75
2021/12/22 08:28:19;;;;;;;;;;;;;;;12.26;26.49;100796.22;4477358;32;33457;-76
2021/12/22 08:30:47;;;;;;;;;;;;;;;12.26;26.57;100794.41;4478517;32;35100;-75
2021/12/22 08:33:24;;;;;;;;;;;;;;;12.59;26.38;100793.16;4471467;32;34777;-79
2021/12/22 08:38:55;;;;;;;;;;;;;;;12.50;26.48;100793.75;4471095;32;33118;-77
2021/12/22 08:41:32;;;;;;;;;;;;;;;12.61;26.32;100801.09;4473276;32;34416;-77
2021/12/22 08:44:01;;;;;;;;;;;;;;;12.23;27.10;100799.09;4472001;32;32990;-75
2021/12/22 08:46:29;;;;;;;;;;;;;;;12.73;26.09;100806.50;4478063;32;33115;-75
2021/12/22 08:48:56;;;;;;;;;;;;;;;12.68;25.91;100807.75;4474471;32;34466;-78
2021/12/22 08:51:23;;;;;;;;;;;;;;;12.90;24.99;100808.06;4475771;32;34187;-75
2021/12/22 08:53:52;;;;;;;;;;;;;;;12.62;26.41;100814.44;4477740;32;32624;-75
2021/12/22 08:56:20;;;;;;;;;;;;;;;12.47;25.99;100812.75;4470104;32;34101;-75
2021/12/22 08:58:47;;;;;;;;;;;;;;;12.62;25.12;100818.94;4464792;32;31886;-77
2021/12/22 09:01:15;;;;;;;;;;;;;;;12.83;24.97;100820.19;4464867;32;34815;-76
2021/12/22 09:03:42;;;;;;;;;;;;;;;12.72;25.46;100815.53;4471281;32;35123;-79
2021/12/22 09:06:10;;;;;;;;;;;;;;;12.67;25.64;100819.50;4470513;32;34105;-78
2021/12/22 09:08:39;;;;;;;;;;;;;;;12.00;25.06;100817.53;4473767;32;34219;-77
2021/12/22 09:11:06;;;;;;;;;;;;;;;12.35;24.09;100819.78;4475574;32;35011;-78
2021/12/22 09:13:36;;;;;;;;;;;;;;;12.47;24.00;100810.06;4474814;32;33062;-77
2021/12/22 09:16:03;;;;;;;;;;;;;;;12.65;23.54;100806.19;4476455;32;34275;-77
2021/12/22 09:18:31;;;;;;;;;;;;;;;12.38;23.38;100810.66;4475349;32;33021;-77
2021/12/22 09:20:58;;;;;;;;;;;;;;;12.72;23.41;100806.63;4469587;32;33741;-75
2021/12/22 09:23:26;;;;;;;;;;;;;;;12.77;23.07;100812.53;4467229;32;33741;-77
2021/12/22 09:25:53;;;;;;;;;;;;;;;12.87;23.64;100815.47;4474643;32;33513;-75
2021/12/22 09:28:20;;;;;;;;;;;;;;;12.21;23.75;100806.41;4472768;32;34097;-74
2021/12/22 09:30:48;;;;;;;;;;;;;;;12.61;22.84;100812.69;4445742;32;822472;-76
2021/12/22 09:33:16;;;;;;;;;;;;;;;11.71;24.42;100813.97;4470108;32;33021;-78
2021/12/22 09:35:44;;;;;;;;;;;;;;;10.93;23.94;100824.09;4473394;32;35199;-75
2021/12/22 09:38:11;;;;;;;;;;;;;;;11.23;24.37;100820.53;4473620;32;33529;-75
2021/12/22 09:40:39;;;;;;;;;;;;;;;11.35;24.72;100823.34;4474789;32;35568;-74
2021/12/22 09:43:06;;;;;;;;;;;;;;;11.29;24.00;100820.16;4473495;32;34051;-74
2021/12/22 09:45:37;;;;;;;;;;;;;;;11.61;24.69;100824.41;4470592;32;34344;-75
2021/12/22 09:53:27;;;;;;;;;;;;;;;9.88;25.79;100806.87;4454921;32;37322;-75
2021/12/22 09:55:55;;;;;;;;;;;;;;;10.40;25.47;100812.00;4477472;32;34182;-74
2021/12/22 09:58:22;;;;;;;;;;;;;;;10.51;25.71;100803.37;4473938;32;33477;-74
2021/12/22 10:00:50;;;;;;;;;;;;;;;10.66;26.70;100810.53;4476574;32;33803;-74
2021/12/22 10:03:18;;;;;;;;;;;;;;;10.87;25.65;100813.75;4476506;32;34187;-74
2021/12/22 10:05:46;;;;;;;;;;;;;;;10.35;26.86;100809.59;4474162;32;35309;-74
2021/12/22 10:08:13;;;;;;;;;;;;;;;10.54;27.42;100809.41;4473007;32;33093;-74
2021/12/22 10:10:43;;;;;;;;;;;;;;;11.14;26.19;100805.91;4472155;32;33968;-73
2021/12/22 10:13:12;;;;;;;;;;;;;;;11.31;25.77;100810.22;4470566;32;34486;-74
2021/12/22 10:15:40;;;;;;;;;;;;;;;11.43;25.02;100810.34;4478928;32;34005;-72
2021/12/22 10:18:15;;;;;;;;;;;;;;;11.65;24.97;100809.00;4478919;32;33455;-76
2021/12/22 10:20:43;;;;;;;;;;;;;;;11.48;24.94;100809.19;4470594;32;34082;-75
2021/12/22 10:23:24;;;;;;;;;;;;;;;11.81;25.82;100800.84;4473945;32;32713;-75
2021/12/22 10:25:51;;;;;;;;;;;;;;;11.50;24.44;100804.59;4476041;32;34529;-75
2021/12/22 10:28:19;;;;;;;;;;;;;;;11.64;24.83;100799.22;4476016;32;33958;-75
2021/12/22 10:30:47;;;;;;;;;;;;;;;9.17;28.66;100799.97;4475139;32;34222;-77
2021/12/22 10:33:16;;;;;;;;;;;;;;;10.55;27.11;100803.09;4475090;32;34221;-74
2021/12/22 10:35:45;;;;;;;;;;;;;;;10.83;26.49;100798.81;4471573;32;35090;-76
2021/12/22 10:38:13;;;;;;;;;;;;;;;11.36;25.58;100790.25;4474372;32;33373;-76
2021/12/22 10:40:44;;;;;;;;;;;;;;;11.15;25.70;100796.91;4477282;32;35151;-75
2021/12/22 10:43:16;;;;;;;;;;;;;;;11.39;25.55;100791.84;4474257;32;34241;-76
2021/12/22 10:45:45;;;;;;;;;;;;;;;10.18;25.70;100793.63;4476228;32;35140;-76
2021/12/22 10:50:59;;;;;;;;;;;;;;;10.67;26.43;100788.16;4476491;32;34389;-75
2021/12/22 10:53:26;;;;;;;;;;;;;;;10.63;26.26;100783.94;4477385;32;34536;-76
2021/12/22 10:55:54;;;;;;;;;;;;;;;9.79;28.24;100789.50;4473104;32;34080;-75
2021/12/22 10:58:25;;;;;;;;;;;;;;;9.95;27.76;100792.22;4473594;32;34335;-77
2021/12/22 11:01:09;;;;;;;;;;;;;;;9.51;29.18;100788.34;4466927;32;35111;-80
2021/12/22 11:03:53;;;;;;;;;;;;;;;9.81;27.49;100784.97;4468072;32;34593;-76
2021/12/22 11:06:24;;;;;;;;;;;;;;;9.29;28.39;100787.78;4476418;32;34207;-73
2021/12/22 11:09:03;;;;;;;;;;;;;;;9.17;28.83;100785.75;4475153;32;32483;-74
2021/12/22 11:11:36;;;;;;;;;;;;;;;8.92;29.25;100787.00;4474538;32;33919;-76
2021/12/22 11:14:19;;;;;;;;;;;;;;;9.24;29.27;100784.47;4469847;32;34400;-75
2021/12/22 11:16:54;;;;;;;;;;;;;;;7.77;31.00;100784.62;4477292;32;35299;-76
2021/12/22 11:19:23;;;;;;;;;;;;;;;9.15;30.07;100774.25;4475997;32;36433;-77
2021/12/22 11:22:01;;;;;;;;;;;;;;;9.47;29.16;100780.56;4472686;32;33621;-76
2021/12/22 11:24:30;;;;;;;;;;;;;;;10.07;28.45;100775.47;4480477;32;33670;-75
2021/12/22 11:26:57;;;;;;;;;;;;;;;10.00;28.72;100772.28;4469712;32;32947;-75
2021/12/22 11:29:25;;;;;;;;;;;;;;;10.16;28.69;100774.09;4467722;32;33149;-75
2021/12/22 11:31:53;;;;;;;;;;;;;;;10.70;28.11;100775.44;4471488;32;35019;-76
2021/12/22 11:34:20;;;;;;;;;;;;;;;9.79;27.65;100768.13;4466507;32;35618;-77
2021/12/22 11:36:50;;;;;;;;;;;;;;;9.43;28.02;100771.00;4477256;32;33890;-76
2021/12/22 11:39:17;;;;;;;;;;;;;;;9.66;28.10;100764.41;4470912;32;31672;-75
2021/12/22 11:41:55;;;;;;;;;;;;;;;9.81;28.48;100758.22;4467625;32;33795;-74
2021/12/22 11:44:27;;;;;;;;;;;;;;;9.85;28.36;100753.56;4468451;32;33094;-76
2021/12/22 11:46:55;;;;;;;;;;;;;;;8.34;30.98;100755.22;4465375;32;32653;-77
2021/12/22 11:49:23;;;;;;;;;;;;;;;8.68;30.39;100756.25;4468776;32;34038;-76
2021/12/22 11:51:50;;;;;;;;;;;;;;;8.68;30.36;100753.56;4468418;32;32993;-77
2021/12/22 11:54:25;;;;;;;;;;;;;;;8.29;30.99;100749.25;4477815;32;35242;-77
2021/12/22 11:56:53;;;;;;;;;;;;;;;6.74;33.99;100767.00;4470028;32;33758;-76
2021/12/22 11:59:41;;;;;;;;;;;;;;;8.19;32.30;100756.00;4476329;32;33343;-75
2021/12/22 12:02:40;;;;;;;;;;;;;;;8.12;33.03;100755.41;4470267;32;34480;-77
2021/12/22 12:05:12;;;;;;;;;;;;;;;8.59;31.12;100754.91;4439949;32;33108;-77
2021/12/22 12:07:40;;;;;;;;;;;;;;;8.29;31.37;100746.59;4469463;32;34323;-76
2021/12/22 12:10:26;;;;;;;;;;;;;;;8.76;31.12;100746.03;4479626;32;33695;-77
2021/12/22 12:12:56;;;;;;;;;;;;;;;8.56;30.71;100747.03;4469927;32;33915;-77
2021/12/22 12:16:01;;;;;;;;;;;;;;;8.96;30.46;100739.69;4468228;32;35079;-77
2021/12/22 12:21:52;;;;;;;;;;;;;;;8.98;30.81;100740.44;4471120;32;33409;-77
2021/12/22 12:24:39;;;;;;;;;;;;;;;9.77;30.01;100745.97;4473400;32;33701;-75
2021/12/22 12:27:25;;;;;;;;;;;;;;;10.25;29.31;100738.81;4470786;32;35553;-76
2021/12/22 12:30:05;;;;;;;;;;;;;;;10.78;28.19;100747.34;4474725;32;33987;-77
2021/12/22 12:32:38;;;;;;;;;;;;;;;11.20;28.04;100738.50;4468745;32;33510;-77
2021/12/22 12:35:26;;;;;;;;;;;;;;;10.32;28.62;100742.88;4468529;32;34181;-76
2021/12/22 12:38:02;;;;;;;;;;;;;;;10.58;28.10;100735.13;4467401;32;34145;-77
2021/12/22 12:40:48;;;;;;;;;;;;;;;10.88;27.67;100732.44;4473391;32;33240;-76
2021/12/22 12:43:15;;;;;;;;;;;;;;;11.10;28.04;100729.31;4474410;32;33791;-76
2021/12/22 12:45:44;;;;;;;;;;;;;;;10.14;28.63;100730.50;4468737;32;34969;-77
2021/12/22 12:48:24;;;;;;;;;;;;;;;10.99;28.00;100734.47;4468841;32;35033;-75
2021/12/22 12:51:11;;;;;;;;;;;;;;;11.43;27.82;100726.38;4471463;32;34280;-77
2021/12/22 12:53:42;;;;;;;;;;;;;;;11.92;26.90;100722.41;4459598;32;33027;-76
2021/12/22 12:56:10;;;;;;;;;;;;;;;11.88;26.75;100721.75;4477036;32;33589;-77
2021/12/22 12:58:58;;;;;;;;;;;;;;;12.17;26.72;100725.22;4472209;32;34352;-76
2021/12/22 13:01:47;;;;;;;;;;;;;;;12.51;26.41;100728.34;4466672;32;32788;-75
2021/12/22 13:04:38;;;;;;;;;;;;;;;12.71;26.78;100724.28;4470696;32;33870;-77
2021/12/22 13:07:07;;;;;;;;;;;;;;;12.42;26.30;100723.56;4456451;31;34709;-75
2021/12/22 13:09:38;;;;;;;;;;;;;;;12.79;26.04;100725.50;4462626;32;33654;-77
2021/12/22 13:17:43;;;;;;;;;;;;;;;12.54;25.82;100723.62;4467940;32;34539;-75
2021/12/22 13:20:11;;;;;;;;;;;;;;;11.80;27.02;100726.72;4469617;32;34266;-77
2021/12/22 13:22:39;;;;;;;;;;;;;;;12.25;26.54;100725.56;4473228;32;33746;-76
2021/12/22 13:25:09;;;;;;;;;;;;;;;11.87;27.18;100728.91;4468765;32;33062;-74
2021/12/22 13:27:38;;;;;;;;;;;;;;;12.62;26.16;100722.25;4466707;32;33250;-75
2021/12/22 13:30:08;;;;;;;;;;;;;;;11.30;27.08;100720.94;4470908;32;34275;-76
2021/12/22 13:32:37;;;;;;;;;;;;;;;11.82;27.16;100719.44;4470166;32;33956;-77